This is the latest recevied weather packets stored in our database for station/object N2XP-3. If no packets are shown the sender has not sent any weather packets the latest 1 day(s).
| Time | Temp. | Humidity | Pressure | Rain* | Wind** | Luminosity | Snow |
|---|---|---|---|---|---|---|---|
| 1778035106 | 18.89° C | 63% | 1007.7 hPa | 0 mm | 1.34 m/s, 246° | - | - |
| 1778034798 | 18.89° C | 62% | 1007.7 hPa | 0 mm | 1.79 m/s, 245° | - | - |
| 1778034550 | 18.89° C | 61% | 1007.7 hPa | 0 mm | 0.89 m/s, 249° | - | - |
| 1778034498 | 18.89° C | 61% | 1007.7 hPa | 0 mm | 0.89 m/s, 249° | - | - |
| 1778034199 | 19.44° C | 60% | 1007.7 hPa | 0 mm | 1.34 m/s, 259° | - | - |
| 1778033591 | 19.44° C | 59% | 1007.6 hPa | 0 mm | 1.79 m/s, 228° | - | - |
| 1778033292 | 19.44° C | 59% | 1007.6 hPa | 0 mm | 2.24 m/s, 233° | - | - |
| 1778032079 | 20° C | 57% | 1007.4 hPa | 0 mm | 1.79 m/s, 266° | - | - |
| 1778031780 | 20° C | 58% | 1007.5 hPa | 0 mm | 1.79 m/s, 277° | - | - |
| 1778031477 | 20° C | 57% | 1007.3 hPa | 0 mm | 1.34 m/s, 257° | - | - |
| 1778030889 | 20° C | 56% | 1007.3 hPa | 0 mm | 1.34 m/s, 15° | - | - |
| 1778030573 | 20° C | 56% | 1007.3 hPa | 0 mm | 1.34 m/s, 15° | - | - |
| 1778029667 | 20° C | 56% | 1007.1 hPa | 0 mm | 0.89 m/s, 288° | - | - |
| 1778029364 | 20° C | 55% | 1007 hPa | 0 mm | 0.89 m/s, 200° | - | - |
| 1778028761 | 20° C | 54% | 1006.9 hPa | 0 mm | 1.79 m/s, 243° | - | - |
| 1778028154 | 20.56° C | 52% | 1006.8 hPa | 0 mm | 1.34 m/s, 297° | - | - |
| 1778027855 | 20.56° C | 52% | 1006.8 hPa | 0 mm | 0.45 m/s, 256° | - | - |
| 1778027245 | 20.56° C | 50% | 1006.7 hPa | 0 mm | 1.34 m/s, 259° | - | - |
| 1778026641 | 21.11° C | 49% | 1006.6 hPa | 0 mm | 0.89 m/s, 290° | - | - |
| 1778026342 | 21.11° C | 49% | 1006.5 hPa | 0 mm | 1.79 m/s, 287° | - | - |
| 1778025434 | 21.67° C | 47% | 1006.4 hPa | 0 mm | 1.79 m/s, 249° | - | - |
| 1778023375 | 23.33° C | 42% | 1006.1 hPa | 0 mm | 1.79 m/s, 224° | - | - |
| 1778023077 | 23.33° C | 42% | 1006.1 hPa | 0 mm | 1.34 m/s, 231° | - | - |
| 1778019100 | 25.56° C | 37% | 1005.6 hPa | 0 mm | 3.13 m/s, 305° | - | - |
| 1778017583 | 26.11° C | 35% | 1005.5 hPa | 0 mm | 4.02 m/s, 201° | - | - |
* Rain latest hour (hover to see other rain measurements)
** Current wind speed in m/s (hover to see current wind gust speed)